sensor_id;sensor_type;location;lat;lon;timestamp;P1;durP1;ratioP1;P2;durP2;ratioP2
60464;SDS011;46314;52.392;9.758;2023-04-25T00:01:02;11.45;;;5.70;;
60464;SDS011;46314;52.392;9.758;2023-04-25T00:03:30;12.38;;;6.47;;
60464;SDS011;46314;52.392;9.758;2023-04-25T00:05:57;15.45;;;5.65;;
60464;SDS011;46314;52.392;9.758;2023-04-25T00:08:24;9.93;;;5.57;;
60464;SDS011;46314;52.392;9.758;2023-04-25T00:10:51;10.57;;;5.78;;
60464;SDS011;46314;52.392;9.758;2023-04-25T00:13:17;12.15;;;5.80;;
60464;SDS011;46314;52.392;9.758;2023-04-25T00:15:43;14.23;;;6.20;;
60464;SDS011;46314;52.392;9.758;2023-04-25T00:18:10;11.52;;;4.90;;
60464;SDS011;46314;52.392;9.758;2023-04-25T00:20:38;12.27;;;5.47;;
60464;SDS011;46314;52.392;9.758;2023-04-25T00:23:04;16.35;;;6.63;;
60464;SDS011;46314;52.392;9.758;2023-04-25T00:25:31;15.13;;;6.05;;
60464;SDS011;46314;52.392;9.758;2023-04-25T00:27:57;15.60;;;5.88;;
60464;SDS011;46314;52.392;9.758;2023-04-25T00:30:24;10.82;;;5.50;;
60464;SDS011;46314;52.392;9.758;2023-04-25T00:32:51;9.77;;;5.15;;
60464;SDS011;46314;52.392;9.758;2023-04-25T00:35:17;15.63;;;5.95;;
60464;SDS011;46314;52.392;9.758;2023-04-25T00:37:45;12.80;;;5.85;;
60464;SDS011;46314;52.392;9.758;2023-04-25T00:40:12;12.68;;;5.72;;
60464;SDS011;46314;52.392;9.758;2023-04-25T00:42:38;13.38;;;6.20;;
60464;SDS011;46314;52.392;9.758;2023-04-25T00:45:07;8.60;;;5.63;;
60464;SDS011;46314;52.392;9.758;2023-04-25T00:47:38;11.43;;;6.07;;
60464;SDS011;46314;52.392;9.758;2023-04-25T00:50:06;9.38;;;5.05;;
60464;SDS011;46314;52.392;9.758;2023-04-25T00:52:34;11.70;;;5.75;;
60464;SDS011;46314;52.392;9.758;2023-04-25T00:55:02;10.27;;;5.80;;
60464;SDS011;46314;52.392;9.758;2023-04-25T00:57:29;14.32;;;5.72;;
60464;SDS011;46314;52.392;9.758;2023-04-25T00:59:55;10.95;;;5.95;;
60464;SDS011;46314;52.392;9.758;2023-04-25T01:02:22;8.45;;;5.00;;
60464;SDS011;46314;52.392;9.758;2023-04-25T01:04:49;12.57;;;5.70;;
60464;SDS011;46314;52.392;9.758;2023-04-25T01:07:16;11.73;;;5.95;;
60464;SDS011;46314;52.392;9.758;2023-04-25T01:09:42;11.85;;;6.05;;
60464;SDS011;46314;52.392;9.758;2023-04-25T01:12:10;10.90;;;6.05;;
60464;SDS011;46314;52.392;9.758;2023-04-25T01:14:37;10.57;;;5.55;;
60464;SDS011;46314;52.392;9.758;2023-04-25T01:17:04;14.07;;;6.97;;
60464;SDS011;46314;52.392;9.758;2023-04-25T01:19:30;11.13;;;5.90;;
60464;SDS011;46314;52.392;9.758;2023-04-25T01:21:58;8.70;;;5.25;;
60464;SDS011;46314;52.392;9.758;2023-04-25T01:24:25;10.40;;;5.68;;
60464;SDS011;46314;52.392;9.758;2023-04-25T01:26:51;8.82;;;5.50;;
60464;SDS011;46314;52.392;9.758;2023-04-25T01:29:19;17.20;;;7.03;;
60464;SDS011;46314;52.392;9.758;2023-04-25T01:31:46;15.98;;;6.40;;
60464;SDS011;46314;52.392;9.758;2023-04-25T01:34:13;10.57;;;5.53;;
60464;SDS011;46314;52.392;9.758;2023-04-25T01:36:40;12.55;;;6.53;;
60464;SDS011;46314;52.392;9.758;2023-04-25T01:39:07;12.77;;;7.00;;
60464;SDS011;46314;52.392;9.758;2023-04-25T01:41:35;11.18;;;6.28;;
60464;SDS011;46314;52.392;9.758;2023-04-25T01:44:02;13.30;;;6.95;;
60464;SDS011;46314;52.392;9.758;2023-04-25T01:46:28;12.00;;;6.22;;
60464;SDS011;46314;52.392;9.758;2023-04-25T01:48:55;10.00;;;5.75;;
60464;SDS011;46314;52.392;9.758;2023-04-25T01:51:21;9.70;;;6.38;;
60464;SDS011;46314;52.392;9.758;2023-04-25T01:53:48;16.00;;;6.80;;
60464;SDS011;46314;52.392;9.758;2023-04-25T01:56:16;13.25;;;6.63;;
60464;SDS011;46314;52.392;9.758;2023-04-25T01:58:43;12.45;;;7.68;;
60464;SDS011;46314;52.392;9.758;2023-04-25T02:01:10;19.23;;;6.88;;
60464;SDS011;46314;52.392;9.758;2023-04-25T02:03:36;12.52;;;7.05;;
60464;SDS011;46314;52.392;9.758;2023-04-25T02:06:03;12.15;;;7.05;;
60464;SDS011;46314;52.392;9.758;2023-04-25T02:08:30;16.63;;;7.18;;
60464;SDS011;46314;52.392;9.758;2023-04-25T02:10:56;11.82;;;6.80;;
60464;SDS011;46314;52.392;9.758;2023-04-25T02:13:24;16.73;;;7.18;;
60464;SDS011;46314;52.392;9.758;2023-04-25T02:15:50;12.80;;;5.40;;
60464;SDS011;46314;52.392;9.758;2023-04-25T02:18:30;13.63;;;6.07;;
60464;SDS011;46314;52.392;9.758;2023-04-25T02:20:57;16.67;;;8.02;;
60464;SDS011;46314;52.392;9.758;2023-04-25T02:23:23;9.68;;;6.07;;
60464;SDS011;46314;52.392;9.758;2023-04-25T02:25:50;16.30;;;6.22;;
60464;SDS011;46314;52.392;9.758;2023-04-25T02:28:17;11.57;;;6.32;;
60464;SDS011;46314;52.392;9.758;2023-04-25T02:30:45;13.35;;;6.20;;
60464;SDS011;46314;52.392;9.758;2023-04-25T02:33:11;12.77;;;5.55;;
60464;SDS011;46314;52.392;9.758;2023-04-25T02:35:38;10.07;;;5.28;;
60464;SDS011;46314;52.392;9.758;2023-04-25T02:38:04;10.27;;;5.97;;
60464;SDS011;46314;52.392;9.758;2023-04-25T02:40:31;14.38;;;5.30;;
60464;SDS011;46314;52.392;9.758;2023-04-25T02:42:57;9.93;;;4.65;;
60464;SDS011;46314;52.392;9.758;2023-04-25T02:45:23;15.60;;;5.22;;
60464;SDS011;46314;52.392;9.758;2023-04-25T02:47:51;14.88;;;5.40;;
60464;SDS011;46314;52.392;9.758;2023-04-25T02:50:18;15.93;;;5.10;;
60464;SDS011;46314;52.392;9.758;2023-04-25T02:52:44;13.70;;;5.07;;
60464;SDS011;46314;52.392;9.758;2023-04-25T02:55:10;11.32;;;4.82;;
60464;SDS011;46314;52.392;9.758;2023-04-25T02:57:38;14.98;;;5.53;;
60464;SDS011;46314;52.392;9.758;2023-04-25T03:00:05;19.48;;;6.28;;
60464;SDS011;46314;52.392;9.758;2023-04-25T03:02:32;16.33;;;5.50;;
60464;SDS011;46314;52.392;9.758;2023-04-25T03:05:00;19.40;;;5.22;;
60464;SDS011;46314;52.392;9.758;2023-04-25T03:07:26;21.10;;;5.05;;
60464;SDS011;46314;52.392;9.758;2023-04-25T03:09:53;17.25;;;5.78;;
60464;SDS011;46314;52.392;9.758;2023-04-25T03:12:19;19.48;;;5.15;;
60464;SDS011;46314;52.392;9.758;2023-04-25T03:14:46;18.17;;;5.47;;
60464;SDS011;46314;52.392;9.758;2023-04-25T03:17:12;16.88;;;5.68;;
60464;SDS011;46314;52.392;9.758;2023-04-25T03:19:38;15.43;;;5.57;;
60464;SDS011;46314;52.392;9.758;2023-04-25T03:22:06;17.65;;;5.05;;
60464;SDS011;46314;52.392;9.758;2023-04-25T03:24:32;19.73;;;5.95;;
60464;SDS011;46314;52.392;9.758;2023-04-25T03:26:59;15.52;;;5.28;;
60464;SDS011;46314;52.392;9.758;2023-04-25T03:29:25;11.55;;;4.80;;
60464;SDS011;46314;52.392;9.758;2023-04-25T03:31:52;14.38;;;5.63;;
60464;SDS011;46314;52.392;9.758;2023-04-25T03:34:18;17.08;;;5.22;;
60464;SDS011;46314;52.392;9.758;2023-04-25T03:36:45;16.42;;;5.90;;
60464;SDS011;46314;52.392;9.758;2023-04-25T03:39:12;18.17;;;7.22;;
60464;SDS011;46314;52.392;9.758;2023-04-25T03:41:39;15.07;;;5.85;;
60464;SDS011;46314;52.392;9.758;2023-04-25T03:44:05;18.98;;;5.78;;
60464;SDS011;46314;52.392;9.758;2023-04-25T03:46:32;13.23;;;5.00;;
60464;SDS011;46314;52.392;9.758;2023-04-25T03:48:58;16.88;;;4.60;;
60464;SDS011;46314;52.392;9.758;2023-04-25T03:51:25;20.83;;;5.85;;
60464;SDS011;46314;52.392;9.758;2023-04-25T03:53:51;19.40;;;6.50;;
60464;SDS011;46314;52.392;9.758;2023-04-25T03:56:19;16.30;;;4.47;;
60464;SDS011;46314;52.392;9.758;2023-04-25T03:58:46;16.67;;;5.60;;
60464;SDS011;46314;52.392;9.758;2023-04-25T04:01:12;14.95;;;5.68;;
60464;SDS011;46314;52.392;9.758;2023-04-25T04:03:39;21.25;;;6.65;;
60464;SDS011;46314;52.392;9.758;2023-04-25T04:06:06;19.35;;;6.43;;
60464;SDS011;46314;52.392;9.758;2023-04-25T04:08:33;20.08;;;5.22;;
60464;SDS011;46314;52.392;9.758;2023-04-25T04:11:00;15.10;;;4.78;;
60464;SDS011;46314;52.392;9.758;2023-04-25T04:13:28;24.20;;;6.50;;
60464;SDS011;46314;52.392;9.758;2023-04-25T04:15:55;17.27;;;5.20;;
60464;SDS011;46314;52.392;9.758;2023-04-25T04:18:21;23.17;;;6.75;;
60464;SDS011;46314;52.392;9.758;2023-04-25T04:20:48;22.20;;;6.43;;
60464;SDS011;46314;52.392;9.758;2023-04-25T04:23:14;17.92;;;6.32;;
60464;SDS011;46314;52.392;9.758;2023-04-25T04:25:41;19.27;;;6.18;;
60464;SDS011;46314;52.392;9.758;2023-04-25T04:28:07;20.33;;;5.90;;
60464;SDS011;46314;52.392;9.758;2023-04-25T04:30:35;19.65;;;4.82;;
60464;SDS011;46314;52.392;9.758;2023-04-25T04:33:02;19.10;;;5.90;;
60464;SDS011;46314;52.392;9.758;2023-04-25T04:35:28;21.42;;;6.28;;
60464;SDS011;46314;52.392;9.758;2023-04-25T04:37:55;21.15;;;5.50;;
60464;SDS011;46314;52.392;9.758;2023-04-25T04:40:21;13.52;;;5.13;;
60464;SDS011;46314;52.392;9.758;2023-04-25T04:42:48;19.38;;;5.60;;
60464;SDS011;46314;52.392;9.758;2023-04-25T04:45:14;26.13;;;6.55;;
60464;SDS011;46314;52.392;9.758;2023-04-25T04:47:42;14.07;;;5.10;;
60464;SDS011;46314;52.392;9.758;2023-04-25T04:50:09;19.08;;;5.60;;
60464;SDS011;46314;52.392;9.758;2023-04-25T04:52:37;18.15;;;5.78;;
60464;SDS011;46314;52.392;9.758;2023-04-25T04:55:04;19.70;;;4.97;;
60464;SDS011;46314;52.392;9.758;2023-04-25T04:57:32;19.80;;;5.68;;
60464;SDS011;46314;52.392;9.758;2023-04-25T04:59:58;18.77;;;5.25;;
60464;SDS011;46314;52.392;9.758;2023-04-25T05:02:25;15.18;;;5.90;;
60464;SDS011;46314;52.392;9.758;2023-04-25T05:04:53;20.48;;;5.68;;
60464;SDS011;46314;52.392;9.758;2023-04-25T05:07:20;16.40;;;5.40;;
60464;SDS011;46314;52.392;9.758;2023-04-25T05:09:46;20.10;;;5.63;;
60464;SDS011;46314;52.392;9.758;2023-04-25T05:12:13;16.13;;;5.20;;
60464;SDS011;46314;52.392;9.758;2023-04-25T05:14:39;25.27;;;6.10;;
60464;SDS011;46314;52.392;9.758;2023-04-25T05:17:05;16.08;;;5.40;;
60464;SDS011;46314;52.392;9.758;2023-04-25T05:19:32;20.90;;;6.50;;
60464;SDS011;46314;52.392;9.758;2023-04-25T05:22:00;19.75;;;5.65;;
60464;SDS011;46314;52.392;9.758;2023-04-25T05:24:26;16.13;;;5.07;;
60464;SDS011;46314;52.392;9.758;2023-04-25T05:26:53;21.35;;;5.93;;
60464;SDS011;46314;52.392;9.758;2023-04-25T05:29:19;17.73;;;5.32;;
60464;SDS011;46314;52.392;9.758;2023-04-25T05:31:45;15.60;;;5.03;;
60464;SDS011;46314;52.392;9.758;2023-04-25T05:34:12;15.45;;;5.32;;
60464;SDS011;46314;52.392;9.758;2023-04-25T05:36:38;12.63;;;5.00;;
60464;SDS011;46314;52.392;9.758;2023-04-25T05:39:06;16.48;;;4.82;;
60464;SDS011;46314;52.392;9.758;2023-04-25T05:41:32;16.40;;;5.85;;
60464;SDS011;46314;52.392;9.758;2023-04-25T05:43:59;15.63;;;5.18;;
60464;SDS011;46314;52.392;9.758;2023-04-25T05:46:25;18.02;;;5.00;;
60464;SDS011;46314;52.392;9.758;2023-04-25T05:48:52;17.58;;;5.38;;
60464;SDS011;46314;52.392;9.758;2023-04-25T05:51:18;15.82;;;5.35;;
60464;SDS011;46314;52.392;9.758;2023-04-25T05:53:45;19.88;;;5.18;;
60464;SDS011;46314;52.392;9.758;2023-04-25T05:56:13;18.00;;;4.95;;
60464;SDS011;46314;52.392;9.758;2023-04-25T05:58:39;17.40;;;5.35;;
60464;SDS011;46314;52.392;9.758;2023-04-25T06:01:06;19.20;;;6.00;;
60464;SDS011;46314;52.392;9.758;2023-04-25T06:03:32;18.58;;;4.90;;
60464;SDS011;46314;52.392;9.758;2023-04-25T06:05:59;13.55;;;5.53;;
60464;SDS011;46314;52.392;9.758;2023-04-25T06:08:26;15.55;;;5.32;;
60464;SDS011;46314;52.392;9.758;2023-04-25T06:10:52;16.98;;;5.65;;
60464;SDS011;46314;52.392;9.758;2023-04-25T06:13:20;22.95;;;5.07;;
60464;SDS011;46314;52.392;9.758;2023-04-25T06:15:47;15.57;;;4.30;;
60464;SDS011;46314;52.392;9.758;2023-04-25T06:18:13;17.83;;;4.97;;
60464;SDS011;46314;52.392;9.758;2023-04-25T06:20:40;21.23;;;5.53;;
60464;SDS011;46314;52.392;9.758;2023-04-25T06:23:06;14.65;;;4.15;;
60464;SDS011;46314;52.392;9.758;2023-04-25T06:25:33;16.70;;;4.78;;
60464;SDS011;46314;52.392;9.758;2023-04-25T06:27:59;16.30;;;4.95;;
60464;SDS011;46314;52.392;9.758;2023-04-25T06:30:27;16.15;;;4.97;;
60464;SDS011;46314;52.392;9.758;2023-04-25T06:32:53;17.40;;;5.32;;
60464;SDS011;46314;52.392;9.758;2023-04-25T06:35:20;27.02;;;5.57;;
60464;SDS011;46314;52.392;9.758;2023-04-25T06:37:47;14.23;;;4.55;;
60464;SDS011;46314;52.392;9.758;2023-04-25T06:40:13;19.10;;;5.05;;
60464;SDS011;46314;52.392;9.758;2023-04-25T06:42:39;15.77;;;5.55;;
60464;SDS011;46314;52.392;9.758;2023-04-25T06:45:06;16.83;;;4.80;;
60464;SDS011;46314;52.392;9.758;2023-04-25T06:47:35;14.23;;;4.60;;
60464;SDS011;46314;52.392;9.758;2023-04-25T06:50:01;18.98;;;5.13;;
60464;SDS011;46314;52.392;9.758;2023-04-25T06:52:28;13.45;;;4.53;;
60464;SDS011;46314;52.392;9.758;2023-04-25T06:54:55;19.88;;;5.20;;
60464;SDS011;46314;52.392;9.758;2023-04-25T06:57:21;14.07;;;5.15;;
60464;SDS011;46314;52.392;9.758;2023-04-25T06:59:47;17.25;;;4.82;;
60464;SDS011;46314;52.392;9.758;2023-04-25T07:02:14;12.75;;;4.32;;
60464;SDS011;46314;52.392;9.758;2023-04-25T07:04:42;16.52;;;4.72;;
60464;SDS011;46314;52.392;9.758;2023-04-25T07:07:08;14.30;;;5.13;;
60464;SDS011;46314;52.392;9.758;2023-04-25T07:09:35;11.57;;;4.22;;
60464;SDS011;46314;52.392;9.758;2023-04-25T07:12:01;12.32;;;4.03;;
60464;SDS011;46314;52.392;9.758;2023-04-25T07:14:28;19.02;;;4.47;;
60464;SDS011;46314;52.392;9.758;2023-04-25T07:16:54;11.60;;;3.97;;
60464;SDS011;46314;52.392;9.758;2023-04-25T07:19:21;14.13;;;4.00;;
60464;SDS011;46314;52.392;9.758;2023-04-25T07:21:49;16.48;;;4.63;;
60464;SDS011;46314;52.392;9.758;2023-04-25T07:24:17;13.57;;;4.22;;
60464;SDS011;46314;52.392;9.758;2023-04-25T07:26:44;9.10;;;3.40;;
60464;SDS011;46314;52.392;9.758;2023-04-25T07:29:10;11.63;;;4.10;;
60464;SDS011;46314;52.392;9.758;2023-04-25T07:31:37;11.73;;;4.47;;
60464;SDS011;46314;52.392;9.758;2023-04-25T07:34:03;12.02;;;3.78;;
60464;SDS011;46314;52.392;9.758;2023-04-25T07:36:30;13.63;;;4.45;;
60464;SDS011;46314;52.392;9.758;2023-04-25T07:38:57;10.10;;;4.05;;
60464;SDS011;46314;52.392;9.758;2023-04-25T07:41:24;12.18;;;3.40;;
60464;SDS011;46314;52.392;9.758;2023-04-25T07:43:50;10.02;;;3.80;;
60464;SDS011;46314;52.392;9.758;2023-04-25T07:46:17;13.75;;;3.50;;
60464;SDS011;46314;52.392;9.758;2023-04-25T07:48:43;17.35;;;4.80;;
60464;SDS011;46314;52.392;9.758;2023-04-25T07:51:10;13.32;;;3.60;;
60464;SDS011;46314;52.392;9.758;2023-04-25T07:53:37;12.18;;;4.00;;
60464;SDS011;46314;52.392;9.758;2023-04-25T07:56:05;12.88;;;3.85;;
60464;SDS011;46314;52.392;9.758;2023-04-25T07:58:32;9.90;;;3.38;;
60464;SDS011;46314;52.392;9.758;2023-04-25T08:00:58;13.55;;;4.30;;
60464;SDS011;46314;52.392;9.758;2023-04-25T08:03:25;9.95;;;3.95;;
60464;SDS011;46314;52.392;9.758;2023-04-25T08:05:52;12.60;;;3.47;;
60464;SDS011;46314;52.392;9.758;2023-04-25T08:08:18;8.15;;;3.25;;
60464;SDS011;46314;52.392;9.758;2023-04-25T08:10:45;11.98;;;3.38;;
60464;SDS011;46314;52.392;9.758;2023-04-25T08:13:13;9.95;;;2.53;;
60464;SDS011;46314;52.392;9.758;2023-04-25T08:15:39;12.77;;;3.20;;
60464;SDS011;46314;52.392;9.758;2023-04-25T08:18:06;10.70;;;3.45;;
60464;SDS011;46314;52.392;9.758;2023-04-25T08:20:32;7.28;;;3.38;;
60464;SDS011;46314;52.392;9.758;2023-04-25T08:22:59;11.55;;;3.47;;
60464;SDS011;46314;52.392;9.758;2023-04-25T08:25:25;8.52;;;2.83;;
60464;SDS011;46314;52.392;9.758;2023-04-25T08:27:52;11.05;;;3.08;;
60464;SDS011;46314;52.392;9.758;2023-04-25T08:30:20;10.55;;;3.33;;
60464;SDS011;46314;52.392;9.758;2023-04-25T08:32:46;8.00;;;3.15;;
60464;SDS011;46314;52.392;9.758;2023-04-25T08:35:13;12.85;;;3.45;;
60464;SDS011;46314;52.392;9.758;2023-04-25T08:37:39;9.00;;;3.25;;
60464;SDS011;46314;52.392;9.758;2023-04-25T08:40:06;10.55;;;3.00;;
60464;SDS011;46314;52.392;9.758;2023-04-25T08:42:37;8.82;;;3.13;;
60464;SDS011;46314;52.392;9.758;2023-04-25T08:45:04;6.25;;;2.10;;
60464;SDS011;46314;52.392;9.758;2023-04-25T08:47:33;12.07;;;3.53;;
60464;SDS011;46314;52.392;9.758;2023-04-25T08:50:01;13.43;;;3.00;;
60464;SDS011;46314;52.392;9.758;2023-04-25T08:52:30;8.02;;;2.58;;
60464;SDS011;46314;52.392;9.758;2023-04-25T08:55:01;11.45;;;3.80;;
60464;SDS011;46314;52.392;9.758;2023-04-25T08:57:28;7.85;;;2.97;;
60464;SDS011;46314;52.392;9.758;2023-04-25T08:59:55;10.77;;;4.15;;
60464;SDS011;46314;52.392;9.758;2023-04-25T09:02:23;7.53;;;2.50;;
60464;SDS011;46314;52.392;9.758;2023-04-25T09:04:52;8.18;;;2.85;;
60464;SDS011;46314;52.392;9.758;2023-04-25T09:07:19;11.73;;;2.70;;
60464;SDS011;46314;52.392;9.758;2023-04-25T09:09:46;9.63;;;2.70;;
60464;SDS011;46314;52.392;9.758;2023-04-25T09:12:12;7.85;;;1.88;;
60464;SDS011;46314;52.392;9.758;2023-04-25T09:14:39;6.47;;;2.78;;
60464;SDS011;46314;52.392;9.758;2023-04-25T09:17:05;5.47;;;2.03;;
60464;SDS011;46314;52.392;9.758;2023-04-25T09:19:32;5.18;;;2.03;;
60464;SDS011;46314;52.392;9.758;2023-04-25T09:22:07;6.28;;;2.45;;
60464;SDS011;46314;52.392;9.758;2023-04-25T09:24:35;4.07;;;1.70;;
60464;SDS011;46314;52.392;9.758;2023-04-25T09:27:03;6.22;;;2.40;;
60464;SDS011;46314;52.392;9.758;2023-04-25T09:29:31;5.75;;;2.42;;
60464;SDS011;46314;52.392;9.758;2023-04-25T09:32:11;5.43;;;1.90;;
60464;SDS011;46314;52.392;9.758;2023-04-25T09:34:39;5.85;;;2.10;;
60464;SDS011;46314;52.392;9.758;2023-04-25T09:37:05;6.55;;;1.90;;
60464;SDS011;46314;52.392;9.758;2023-04-25T09:39:33;5.35;;;2.08;;
60464;SDS011;46314;52.392;9.758;2023-04-25T09:42:00;8.05;;;2.42;;
60464;SDS011;46314;52.392;9.758;2023-04-25T09:44:26;7.55;;;2.20;;
60464;SDS011;46314;52.392;9.758;2023-04-25T09:46:53;6.90;;;2.28;;
60464;SDS011;46314;52.392;9.758;2023-04-25T09:49:19;4.20;;;1.98;;
60464;SDS011;46314;52.392;9.758;2023-04-25T09:51:53;7.15;;;2.75;;
60464;SDS011;46314;52.392;9.758;2023-04-25T09:54:21;5.05;;;2.00;;
60464;SDS011;46314;52.392;9.758;2023-04-25T09:56:48;5.45;;;1.65;;
60464;SDS011;46314;52.392;9.758;2023-04-25T09:59:18;5.13;;;2.33;;
60464;SDS011;46314;52.392;9.758;2023-04-25T10:01:46;5.70;;;1.55;;
60464;SDS011;46314;52.392;9.758;2023-04-25T10:04:16;4.90;;;1.88;;
60464;SDS011;46314;52.392;9.758;2023-04-25T10:06:50;4.03;;;1.65;;
60464;SDS011;46314;52.392;9.758;2023-04-25T10:09:19;5.90;;;1.92;;
60464;SDS011;46314;52.392;9.758;2023-04-25T10:11:51;6.35;;;1.95;;
60464;SDS011;46314;52.392;9.758;2023-04-25T10:14:18;5.18;;;1.88;;
60464;SDS011;46314;52.392;9.758;2023-04-25T10:16:45;5.80;;;2.67;;
60464;SDS011;46314;52.392;9.758;2023-04-25T10:19:13;7.43;;;2.15;;
60464;SDS011;46314;52.392;9.758;2023-04-25T10:21:44;8.10;;;2.00;;
60464;SDS011;46314;52.392;9.758;2023-04-25T10:24:15;4.55;;;1.60;;
60464;SDS011;46314;52.392;9.758;2023-04-25T10:26:43;7.07;;;2.03;;
60464;SDS011;46314;52.392;9.758;2023-04-25T10:29:10;5.40;;;2.10;;
60464;SDS011;46314;52.392;9.758;2023-04-25T10:31:44;7.22;;;1.85;;
60464;SDS011;46314;52.392;9.758;2023-04-25T10:34:11;6.28;;;1.95;;
60464;SDS011;46314;52.392;9.758;2023-04-25T10:36:38;6.47;;;1.95;;
60464;SDS011;46314;52.392;9.758;2023-04-25T10:39:05;5.70;;;2.20;;
60464;SDS011;46314;52.392;9.758;2023-04-25T10:41:32;7.28;;;2.30;;
60464;SDS011;46314;52.392;9.758;2023-04-25T10:44:13;6.03;;;2.20;;
60464;SDS011;46314;52.392;9.758;2023-04-25T10:46:40;5.68;;;2.00;;
60464;SDS011;46314;52.392;9.758;2023-04-25T10:49:07;4.30;;;1.80;;
60464;SDS011;46314;52.392;9.758;2023-04-25T10:51:34;6.97;;;2.10;;
60464;SDS011;46314;52.392;9.758;2023-04-25T10:54:20;8.30;;;2.15;;
60464;SDS011;46314;52.392;9.758;2023-04-25T10:56:50;6.43;;;2.45;;
60464;SDS011;46314;52.392;9.758;2023-04-25T10:59:18;7.47;;;2.45;;
60464;SDS011;46314;52.392;9.758;2023-04-25T11:01:45;3.47;;;1.85;;
60464;SDS011;46314;52.392;9.758;2023-04-25T11:04:19;4.93;;;2.20;;
60464;SDS011;46314;52.392;9.758;2023-04-25T11:06:51;5.45;;;1.70;;
60464;SDS011;46314;52.392;9.758;2023-04-25T11:09:32;4.63;;;2.00;;
60464;SDS011;46314;52.392;9.758;2023-04-25T11:12:00;5.53;;;1.85;;
60464;SDS011;46314;52.392;9.758;2023-04-25T11:14:26;6.60;;;1.95;;
60464;SDS011;46314;52.392;9.758;2023-04-25T11:16:53;5.07;;;1.73;;
60464;SDS011;46314;52.392;9.758;2023-04-25T11:19:20;5.88;;;2.40;;
60464;SDS011;46314;52.392;9.758;2023-04-25T11:21:46;3.50;;;2.03;;
60464;SDS011;46314;52.392;9.758;2023-04-25T11:24:13;2.97;;;1.70;;
60464;SDS011;46314;52.392;9.758;2023-04-25T11:26:40;5.13;;;2.00;;
60464;SDS011;46314;52.392;9.758;2023-04-25T11:29:08;8.35;;;2.17;;
60464;SDS011;46314;52.392;9.758;2023-04-25T11:31:35;8.90;;;2.10;;
60464;SDS011;46314;52.392;9.758;2023-04-25T11:34:01;7.80;;;2.53;;
60464;SDS011;46314;52.392;9.758;2023-04-25T11:36:28;6.15;;;2.42;;
60464;SDS011;46314;52.392;9.758;2023-04-25T11:38:55;7.45;;;2.17;;
60464;SDS011;46314;52.392;9.758;2023-04-25T11:41:21;9.05;;;2.60;;
60464;SDS011;46314;52.392;9.758;2023-04-25T11:43:48;4.72;;;2.65;;
60464;SDS011;46314;52.392;9.758;2023-04-25T11:46:16;4.75;;;2.30;;
60464;SDS011;46314;52.392;9.758;2023-04-25T11:48:43;7.50;;;3.03;;
60464;SDS011;46314;52.392;9.758;2023-04-25T11:51:09;6.72;;;2.85;;
60464;SDS011;46314;52.392;9.758;2023-04-25T11:53:36;6.05;;;2.80;;
60464;SDS011;46314;52.392;9.758;2023-04-25T11:56:02;7.50;;;2.88;;
60464;SDS011;46314;52.392;9.758;2023-04-25T12:01:26;5.68;;;2.63;;
60464;SDS011;46314;52.392;9.758;2023-04-25T12:03:58;8.77;;;3.10;;
60464;SDS011;46314;52.392;9.758;2023-04-25T12:06:36;7.72;;;2.78;;
60464;SDS011;46314;52.392;9.758;2023-04-25T12:09:03;7.75;;;2.45;;
60464;SDS011;46314;52.392;9.758;2023-04-25T12:11:31;4.57;;;2.28;;
60464;SDS011;46314;52.392;9.758;2023-04-25T12:14:01;6.20;;;2.03;;
60464;SDS011;46314;52.392;9.758;2023-04-25T12:16:29;5.18;;;2.00;;
60464;SDS011;46314;52.392;9.758;2023-04-25T12:18:56;3.50;;;1.58;;
60464;SDS011;46314;52.392;9.758;2023-04-25T12:21:22;3.65;;;1.33;;
60464;SDS011;46314;52.392;9.758;2023-04-25T12:23:48;3.38;;;1.10;;
60464;SDS011;46314;52.392;9.758;2023-04-25T12:26:15;6.88;;;1.50;;
60464;SDS011;46314;52.392;9.758;2023-04-25T12:28:44;3.05;;;1.50;;
60464;SDS011;46314;52.392;9.758;2023-04-25T12:31:11;7.18;;;1.65;;
60464;SDS011;46314;52.392;9.758;2023-04-25T12:33:39;4.43;;;1.50;;
60464;SDS011;46314;52.392;9.758;2023-04-25T12:36:06;3.97;;;1.52;;
60464;SDS011;46314;52.392;9.758;2023-04-25T12:38:35;5.15;;;1.75;;
60464;SDS011;46314;52.392;9.758;2023-04-25T12:41:02;3.97;;;1.27;;
60464;SDS011;46314;52.392;9.758;2023-04-25T12:43:29;4.47;;;1.33;;
60464;SDS011;46314;52.392;9.758;2023-04-25T12:45:55;4.43;;;0.95;;
60464;SDS011;46314;52.392;9.758;2023-04-25T12:48:23;2.30;;;0.95;;
60464;SDS011;46314;52.392;9.758;2023-04-25T12:50:51;3.58;;;0.98;;
60464;SDS011;46314;52.392;9.758;2023-04-25T12:53:18;1.92;;;0.73;;
60464;SDS011;46314;52.392;9.758;2023-04-25T12:55:45;2.22;;;0.77;;
60464;SDS011;46314;52.392;9.758;2023-04-25T12:58:13;2.80;;;0.95;;
60464;SDS011;46314;52.392;9.758;2023-04-25T13:00:39;2.22;;;1.35;;
60464;SDS011;46314;52.392;9.758;2023-04-25T13:03:06;3.70;;;1.48;;
60464;SDS011;46314;52.392;9.758;2023-04-25T13:05:32;2.15;;;1.10;;
60464;SDS011;46314;52.392;9.758;2023-04-25T13:08:00;5.38;;;1.17;;
60464;SDS011;46314;52.392;9.758;2023-04-25T13:10:27;3.28;;;1.48;;
60464;SDS011;46314;52.392;9.758;2023-04-25T13:12:53;4.63;;;1.20;;
60464;SDS011;46314;52.392;9.758;2023-04-25T13:15:20;3.70;;;1.15;;
60464;SDS011;46314;52.392;9.758;2023-04-25T13:17:46;6.78;;;1.55;;
60464;SDS011;46314;52.392;9.758;2023-04-25T13:20:13;4.80;;;1.45;;
60464;SDS011;46314;52.392;9.758;2023-04-25T13:22:39;4.75;;;1.58;;
60464;SDS011;46314;52.392;9.758;2023-04-25T13:25:08;2.42;;;0.85;;
60464;SDS011;46314;52.392;9.758;2023-04-25T13:27:35;4.10;;;1.52;;
60464;SDS011;46314;52.392;9.758;2023-04-25T13:30:02;4.25;;;1.30;;
60464;SDS011;46314;52.392;9.758;2023-04-25T13:32:30;4.65;;;1.45;;
60464;SDS011;46314;52.392;9.758;2023-04-25T13:34:56;6.72;;;1.77;;
60464;SDS011;46314;52.392;9.758;2023-04-25T13:37:23;2.97;;;1.52;;
60464;SDS011;46314;52.392;9.758;2023-04-25T13:39:49;3.88;;;1.70;;
60464;SDS011;46314;52.392;9.758;2023-04-25T13:42:17;4.13;;;1.77;;
60464;SDS011;46314;52.392;9.758;2023-04-25T13:44:44;4.82;;;1.63;;
60464;SDS011;46314;52.392;9.758;2023-04-25T13:47:10;3.97;;;1.65;;
60464;SDS011;46314;52.392;9.758;2023-04-25T13:49:37;4.72;;;1.60;;
60464;SDS011;46314;52.392;9.758;2023-04-25T13:52:03;4.45;;;1.80;;
60464;SDS011;46314;52.392;9.758;2023-04-25T13:54:29;6.75;;;2.30;;
60464;SDS011;46314;52.392;9.758;2023-04-25T13:56:56;8.95;;;2.97;;
60464;SDS011;46314;52.392;9.758;2023-04-25T13:59:24;2.60;;;1.33;;
60464;SDS011;46314;52.392;9.758;2023-04-25T14:01:50;3.38;;;1.42;;
60464;SDS011;46314;52.392;9.758;2023-04-25T14:04:17;3.60;;;1.15;;
60464;SDS011;46314;52.392;9.758;2023-04-25T14:06:43;2.42;;;1.10;;
60464;SDS011;46314;52.392;9.758;2023-04-25T14:09:10;4.07;;;1.42;;
60464;SDS011;46314;52.392;9.758;2023-04-25T14:11:36;3.78;;;1.25;;
60464;SDS011;46314;52.392;9.758;2023-04-25T14:14:03;4.63;;;1.50;;
60464;SDS011;46314;52.392;9.758;2023-04-25T14:16:31;4.22;;;1.50;;
60464;SDS011;46314;52.392;9.758;2023-04-25T14:18:57;3.70;;;1.42;;
60464;SDS011;46314;52.392;9.758;2023-04-25T14:21:24;2.30;;;1.40;;
60464;SDS011;46314;52.392;9.758;2023-04-25T14:23:50;5.55;;;1.58;;
60464;SDS011;46314;52.392;9.758;2023-04-25T14:26:17;3.15;;;1.60;;
60464;SDS011;46314;52.392;9.758;2023-04-25T14:28:43;4.78;;;1.50;;
60464;SDS011;46314;52.392;9.758;2023-04-25T14:31:10;4.72;;;1.88;;
60464;SDS011;46314;52.392;9.758;2023-04-25T14:33:38;3.42;;;1.60;;
60464;SDS011;46314;52.392;9.758;2023-04-25T14:36:04;3.70;;;1.52;;
60464;SDS011;46314;52.392;9.758;2023-04-25T14:38:31;7.28;;;2.28;;
60464;SDS011;46314;52.392;9.758;2023-04-25T14:40:57;7.00;;;1.88;;
60464;SDS011;46314;52.392;9.758;2023-04-25T14:43:24;3.47;;;1.48;;